PS15 weather

Vicars Private Airport
Altoona, Pennsylvania, United States

Public forecast

Using degrees Fahrenheit for public forecast. Weather courtesy of forecast.io.

Closest aviation weather report (METAR) to Vicars Private Airport

Closest report is Altoona Blair County Airport, 15.4 nm (28.6 km) SSE. Retrieved 2019/10/20 04:53 UTC (34 minutes ago):

KAOO 200453Z AUTO 15004KT 10SM CLR 11/04 A2995 RMK AO2 SLP144 T01060044 401611011

Closest aviation forecast (TAF) to Vicars Private Airport

Closest forecast is Altoona Blair County Airport, 15.4 nm (28.6 km) SSE. Retrieved 2019-10-20 00:22 UTC (5 hours ago):

TAF KAOO 192320Z 2000/2024 14005KT P6SM OVC200 FM201500 VRB03KT P6SM OVC090 FM201800 VRB03KT P6SM OVC060 FM202200 36005KT P6SM OVC060